RJBB/KIX METAR and TAF weather

Enter ICAO airport designator
Station Type Date Time Source
RJBB METAR 2019/10/15 18:30 UTC NOAA

RJBB 151830Z AUTO 04014KT 9999 NCD 16/11 Q1025 NOSIG


Station Type Date Time Source
RJBB Decoded METAR 2019/10/15 18:30 UTC NOAA

Kansai International Airport, Japan (RJBB) 34-25N 135-15E 8M
Oct 15, 2019 - 02:30 PM EDT / 2019.10.15 1830 UTC
Wind: from the NE (040 degrees) at 16 MPH (14 KT):0
Visibility: greater than 7 mile(s):0
Temperature: 60 F (16 C)
Dew Point: 51 F (11 C)
Relative Humidity: 72%
Pressure (altimeter): 30.27 in. Hg (1025 hPa)
ob: RJBB 151830Z AUTO 04014KT 9999 NCD 16/11 Q1025 NOSIG
cycle: 18

Station Type Date Time Source
RJBB TAF 2019/10/15 18:08 UTC NOAA

TAF RJBB 151706Z 1518/1700 05010KT 9999 FEW030

Example: see airport list